M I D A S
Marine Information and Data Acquisition System
Tripno 2058 of the Zeeleeuw from 2011-03-15 07:59:48 to 2011-03-15 15:20:23
Back to CruiseResearch ActivitiesStationsMapUnderway DataData graphs

EquipmentUnitsComment
TimeDGPSUTC
LatitudeDGPSDM.mWGS84
LongitudeDGPSDM.mWGS84
HeadingGyrodeg 
SOGDGPSknotsSpeed over ground
COGDGPSdegCourse over ground
DepthEcho soundermeters200 kHz
Missing or incorrect values are displayed as -999
Navigation data collected by the RV Zeeleeuw from 2011-03-15 07:57:52 to 2011-03-15 15:27:58
Time Latitude Longitude Heading SOG COG Depth
2011-03-15 07:58:57 51°13.662 2°55.961 126.8 0.1 71 9.6
2011-03-15 07:59:56 51°13.661 2°55.961 115.7 0.1 197 9.6
2011-03-15 08:00:57 51°13.669 2°55.927 109.9 2.9 291 -999
2011-03-15 08:01:58 51°13.688 2°55.832 105.8 3.8 286 -999
2011-03-15 08:02:58 51°13.697 2°55.737 89.4 2.5 275 -999
2011-03-15 08:03:56 51°13.706 2°55.731 42.9 1.3 22 14.4
2011-03-15 08:04:55 51°13.705 2°55.732 4 1 189 -999
2011-03-15 08:05:57 51°13.747 2°55.701 335.8 6.3 334 14
2011-03-15 08:06:55 51°13.872 2°55.608 336.9 9.7 336 13.2
2011-03-15 08:07:54 51°14.021 2°55.498 336.6 10.2 335 12.7
2011-03-15 08:08:54 51°14.18 2°55.379 336.4 10.8 334 12.8
2011-03-15 08:09:55 51°14.343 2°55.229 330.6 11.6 329 12.7
2011-03-15 08:10:54 51°14.51 2°55.051 328 12.9 326 13.4
2011-03-15 08:11:54 51°14.692 2°54.865 324.9 13 327 13.2
2011-03-15 08:12:54 51°14.867 2°54.667 318.3 12.8 321 13.5
2011-03-15 08:13:54 51°15.034 2°54.451 321.5 13 322 13.7
2011-03-15 08:14:54 51°15.2 2°54.228 319.2 13.1 321 13.6
2011-03-15 08:15:54 51°15.369 2°54.01 319.2 13 321 13.7
2011-03-15 08:16:54 51°15.541 2°53.801 321.3 13 323 14.1
2011-03-15 08:17:54 51°15.714 2°53.595 321.5 13 323 13.7
2011-03-15 08:18:54 51°15.895 2°53.406 329.2 13.2 332 13.5
2011-03-15 08:19:54 51°16.091 2°53.253 332.1 13.2 334 14
2011-03-15 08:20:54 51°16.288 2°53.098 331.5 13.2 334 14.2
2011-03-15 08:21:54 51°16.485 2°52.942 331.8 13.2 334 14.2
2011-03-15 08:22:54 51°16.682 2°52.788 331.7 13.2 334 13.2
2011-03-15 08:23:54 51°16.877 2°52.632 331.6 13.1 335 11.8
2011-03-15 08:24:54 51°17.076 2°52.486 333.8 13.2 336 11.9
2011-03-15 08:25:54 51°17.277 2°52.341 333.2 13.3 336 12.9
2011-03-15 08:26:54 51°17.478 2°52.19 332.6 13.3 334 13.8
2011-03-15 08:27:54 51°17.68 2°52.042 333.7 13.2 336 12.8
2011-03-15 08:28:54 51°17.879 2°51.893 333.3 13.2 335 12
2011-03-15 08:29:54 51°18.078 2°51.748 333.2 13.2 335 12.8
2011-03-15 08:30:54 51°18.277 2°51.599 333.3 13.2 335 14.3
2011-03-15 08:31:54 51°18.477 2°51.451 333.4 13.2 335 15.5
2011-03-15 08:32:54 51°18.678 2°51.302 332.9 13.4 335 16.2
2011-03-15 08:33:54 51°18.88 2°51.155 333.2 13.4 335 17
2011-03-15 08:34:54 51°19.083 2°51.005 333.1 13.5 335 17.1
2011-03-15 08:35:54 51°19.284 2°50.852 333.4 13.4 335 16.7
2011-03-15 08:36:54 51°19.487 2°50.697 333.1 13.4 334 15.1
2011-03-15 08:37:54 51°19.689 2°50.543 333.4 13.5 334 14.2
2011-03-15 08:38:54 51°19.89 2°50.384 332.9 13.5 334 16.4
2011-03-15 08:39:54 51°20.094 2°50.24 341.9 13.3 346 17.2
2011-03-15 08:40:54 51°20.321 2°50.214 359.3 13.7 359 20
2011-03-15 08:41:54 51°20.548 2°50.205 358.8 13.7 358 22.9
2011-03-15 08:42:54 51°20.776 2°50.193 358.6 13.7 359 24.8
2011-03-15 08:43:54 51°21.006 2°50.191 359.5 13.8 -999 25.8
2011-03-15 08:44:54 51°21.233 2°50.176 353.2 13.6 352 25.2
2011-03-15 08:45:54 51°21.441 2°50.049 329.8 13.4 331 25.2
2011-03-15 08:46:54 51°21.626 2°49.852 321.6 13.4 325 24
2011-03-15 08:47:54 51°21.808 2°49.647 319.5 13.3 322 25.4
2011-03-15 08:48:54 51°21.969 2°49.406 312.5 13.2 316 25.6
2011-03-15 08:49:54 51°22.126 2°49.157 313.2 13.3 315 25.4
2011-03-15 08:50:54 51°22.273 2°48.896 307.4 13.3 311 24.7
2011-03-15 08:51:54 51°22.392 2°48.607 297.6 13.1 301 21.1
2011-03-15 08:52:54 51°22.502 2°48.315 298.6 12.7 302 15.9
2011-03-15 08:53:54 51°22.615 2°48.026 297.7 12.8 302 18.9
2011-03-15 08:54:54 51°22.725 2°47.736 298.1 12.7 301 20.5
2011-03-15 08:55:54 51°22.829 2°47.438 293.3 12.7 296 20.9
2011-03-15 08:56:54 51°22.925 2°47.137 293.2 12.6 297 21.7
2011-03-15 08:57:54 51°23.021 2°46.835 293.9 12.8 298 20.5
2011-03-15 08:58:54 51°23.127 2°46.542 296.9 12.9 300 26.5
2011-03-15 08:59:54 51°23.235 2°46.247 296.4 12.9 299 27.2
2011-03-15 09:00:54 51°23.343 2°45.952 297.7 13 301 27.6
2011-03-15 09:01:54 51°23.452 2°45.654 297.5 12.9 299 29.2
2011-03-15 09:02:54 51°23.56 2°45.356 298.1 13.1 301 29.1
2011-03-15 09:03:54 51°23.681 2°45.068 301.2 13 303 29.1
2011-03-15 09:04:54 51°23.799 2°44.778 300.1 13 303 28.4
2011-03-15 09:05:54 51°23.906 2°44.48 295 12.7 297 28.5
2011-03-15 09:06:54 51°24.008 2°44.178 295.8 12.7 299 26.6
2011-03-15 09:07:54 51°24.131 2°43.899 309.6 13.1 314 29.4
2011-03-15 09:08:54 51°24.314 2°43.709 338.4 12.9 341 28.1
2011-03-15 09:09:54 51°24.449 2°43.681 358.5 6 2 25.5
2011-03-15 09:10:54 51°24.525 2°43.693 7.1 3.6 10 26.7
2011-03-15 09:11:54 51°24.58 2°43.709 8.8 3.2 11 25.9
2011-03-15 09:12:54 51°24.626 2°43.722 5.9 2.7 10 25.4
2011-03-15 09:13:54 51°24.665 2°43.724 348.6 1.3 359 26
2011-03-15 09:14:54 51°24.685 2°43.724 354.3 1.2 -999 25.2
2011-03-15 09:15:54 51°24.703 2°43.725 3.6 1.1 -999 25.2
2011-03-15 09:16:54 51°24.718 2°43.727 7.4 0.4 336 24.9
2011-03-15 09:17:54 51°24.704 2°43.729 348.5 1.8 159 25.1
2011-03-15 09:18:54 51°24.673 2°43.76 328.2 2 137 24.4
2011-03-15 09:19:54 51°24.664 2°43.786 305.2 0.7 339 23.2
2011-03-15 09:20:54 51°24.672 2°43.73 254.3 1.7 267 25.2
2011-03-15 09:21:54 51°24.678 2°43.72 233.7 0.4 322 24.5
2011-03-15 09:22:54 51°24.682 2°43.713 213.3 0.1 313 25.9
2011-03-15 09:23:54 51°24.685 2°43.712 196.1 0.2 349 25.8
2011-03-15 09:24:54 51°24.687 2°43.714 184.6 0.3 176 25.9
2011-03-15 09:25:54 51°24.677 2°43.722 177.7 0.8 151 23.4
2011-03-15 09:26:54 51°24.66 2°43.722 200.7 0.9 193 26.9
2011-03-15 09:27:54 51°24.655 2°43.722 189.1 0.2 170 26.5
2011-03-15 09:28:54 51°24.654 2°43.726 182.1 0.3 96 26.7
2011-03-15 09:29:54 51°24.656 2°43.731 174.9 0.3 62 26.9
2011-03-15 09:30:54 51°24.655 2°43.737 180.9 0.5 134 26.8
2011-03-15 09:31:54 51°24.647 2°43.737 198.9 0.2 134 27
2011-03-15 09:32:54 51°24.657 2°43.742 198 1.2 20 26.6
2011-03-15 09:33:54 51°24.666 2°43.738 220.8 0.7 250 25.8
2011-03-15 09:34:54 51°24.66 2°43.717 223.4 0.9 233 26.9
2011-03-15 09:35:54 51°24.657 2°43.707 209.3 0.1 235 26
2011-03-15 09:36:54 51°24.659 2°43.707 193.6 0.3 22 26.3
2011-03-15 09:37:54 51°24.664 2°43.71 183.1 0.4 21 26.5
2011-03-15 09:38:54 51°24.671 2°43.715 175 0.4 12 24.4
2011-03-15 09:39:54 51°24.676 2°43.722 167.8 0.5 51 23
2011-03-15 09:40:54 51°24.681 2°43.729 165.6 0.6 44 24.1
2011-03-15 09:41:54 51°24.687 2°43.736 164.3 0.5 39 24.8
2011-03-15 09:42:54 51°24.692 2°43.743 162.7 0.5 31 24.7
2011-03-15 09:43:54 51°24.698 2°43.75 162.2 0.5 30 24.3
2011-03-15 09:44:54 51°24.694 2°43.758 178.4 1 158 24
2011-03-15 09:45:54 51°24.674 2°43.751 214.3 1.4 216 24.4
2011-03-15 09:46:54 51°24.66 2°43.72 236.5 1.3 241 26.7
2011-03-15 09:47:54 51°24.657 2°43.702 221.9 0.2 220 25.4
2011-03-15 09:48:54 51°24.659 2°43.699 203.6 0.3 5 24.5
2011-03-15 09:49:54 51°24.663 2°43.704 188.8 0.4 34 25
2011-03-15 09:50:54 51°24.67 2°43.71 182.2 0.4 24 23.1
2011-03-15 09:51:54 51°24.677 2°43.717 173.8 0.5 40 22.4
2011-03-15 09:52:54 51°24.682 2°43.724 169.3 0.5 43 24.9
2011-03-15 09:53:54 51°24.688 2°43.731 165.6 0.4 38 24.9
2011-03-15 09:54:54 51°24.694 2°43.737 166 0.4 20 24.6
2011-03-15 09:55:54 51°24.7 2°43.741 165.6 0.4 26 24.5
2011-03-15 09:56:54 51°24.707 2°43.747 167.5 0.5 31 23.9
2011-03-15 09:57:54 51°24.702 2°43.762 150.2 1.5 130 22.9
2011-03-15 09:58:55 51°24.692 2°43.85 90.9 4.8 82 26.7
2011-03-15 09:59:54 51°24.778 2°43.969 32.2 9.6 30 24.8
2011-03-15 10:00:54 51°24.939 2°44.102 15.6 12.1 12 24.2
2011-03-15 10:01:54 51°25.161 2°44.13 3.9 13.8 4 22.9
2011-03-15 10:02:54 51°25.391 2°44.156 3.9 13.8 5 23
2011-03-15 10:03:55 51°25.626 2°44.185 3.8 13.9 5 24.3
2011-03-15 10:04:54 51°25.851 2°44.237 11.9 13.9 14 27.3
2011-03-15 10:05:54 51°26.06 2°44.402 36.2 14.1 36 26.8
2011-03-15 10:06:54 51°26.218 2°44.677 56.4 14.1 54 29.3
2011-03-15 10:07:54 51°26.367 2°44.969 50.6 14.2 48 29.6
2011-03-15 10:08:54 51°26.535 2°45.234 45.8 14.1 44 29.6
2011-03-15 10:09:54 51°26.702 2°45.499 46.5 14.1 45 30.4
2011-03-15 10:10:55 51°26.879 2°45.754 37.5 14 36 32
2011-03-15 10:11:54 51°27.066 2°45.97 37.1 14.1 36 31.3
2011-03-15 10:12:54 51°27.254 2°46.193 37.1 14 36 31.5
2011-03-15 10:13:54 51°27.444 2°46.415 37.8 14.1 37 33.2
2011-03-15 10:14:54 51°27.635 2°46.631 37.1 14 36 32.9
2011-03-15 10:15:54 51°27.824 2°46.851 38.2 14.1 36 32.9
2011-03-15 10:16:54 51°28.018 2°47.069 36.6 14.2 36 32.8
2011-03-15 10:17:54 51°28.207 2°47.299 39.3 14.3 38 33.8
2011-03-15 10:18:54 51°28.396 2°47.532 39.5 14.3 38 32.1
2011-03-15 10:19:54 51°28.586 2°47.76 38.3 14.2 36 31.6
2011-03-15 10:20:54 51°28.774 2°47.993 39.1 14.2 37 30.5
2011-03-15 10:21:54 51°28.962 2°48.225 39.3 14.4 38 30.8
2011-03-15 10:22:54 51°29.145 2°48.469 42.9 14.3 41 28.8
2011-03-15 10:23:54 51°29.32 2°48.728 43.7 14.2 42 28.2
2011-03-15 10:24:54 51°29.497 2°48.984 43.5 14.3 42 27.5
2011-03-15 10:25:54 51°29.674 2°49.239 45.1 14.3 43 27.4
2011-03-15 10:26:54 51°29.851 2°49.496 44.4 14.4 42 25.5
2011-03-15 10:27:54 51°30.027 2°49.751 44.2 14.2 42 24.1
2011-03-15 10:28:54 51°30.203 2°50.006 44 14.3 41 22.8
2011-03-15 10:29:54 51°30.381 2°50.257 43.2 14.2 40 22.2
2011-03-15 10:30:54 51°30.552 2°50.518 53.7 14.1 52 22.7
2011-03-15 10:31:54 51°30.682 2°50.831 61.1 14.1 58 24.3
2011-03-15 10:32:54 51°30.812 2°51.147 60.3 14.2 57 22.9
2011-03-15 10:33:54 51°30.946 2°51.461 59.4 14.3 55 23.6
2011-03-15 10:34:54 51°31.08 2°51.772 60 14.2 57 24.8
2011-03-15 10:35:54 51°31.176 2°51.999 61.6 7.5 57 23.4
2011-03-15 10:36:54 51°31.234 2°52.14 67.8 6.4 62 22
2011-03-15 10:37:54 51°31.263 2°52.327 90.1 7.8 82 22.5
2011-03-15 10:38:54 51°31.282 2°52.507 92.5 4.9 83 22.5
2011-03-15 10:39:54 51°31.285 2°52.579 136.5 1 68 23.1
2011-03-15 10:40:54 51°31.299 2°52.591 165.5 0.8 18 22.9
2011-03-15 10:41:54 51°31.31 2°52.598 173.8 0.7 24 23.2
2011-03-15 10:42:54 51°31.319 2°52.603 172.4 0.3 18 23.2
2011-03-15 10:43:54 51°31.322 2°52.611 167.6 0.2 100 22.9
2011-03-15 10:44:54 51°31.318 2°52.621 167 0.5 144 22.9
2011-03-15 10:45:54 51°31.312 2°52.63 171.2 0.5 139 23
2011-03-15 10:46:54 51°31.307 2°52.637 176.8 0.4 155 22.8
2011-03-15 10:47:54 51°31.302 2°52.64 183.4 0.2 128 22.6
2011-03-15 10:48:54 51°31.3 2°52.639 186.4 0.1 189 22.7
2011-03-15 10:49:54 51°31.299 2°52.639 186.5 0.1 281 22.6
2011-03-15 10:50:54 51°31.3 2°52.639 185.5 0.2 317 22.6
2011-03-15 10:51:54 51°31.302 2°52.639 185.7 0.1 -999 22.5
2011-03-15 10:52:54 51°31.304 2°52.638 187.3 0.2 324 22.6
2011-03-15 10:53:54 51°31.305 2°52.638 187 0.1 299 22.8
2011-03-15 10:54:54 51°31.305 2°52.639 186.9 0.1 220 23
2011-03-15 10:55:54 51°31.304 2°52.638 188.3 -999 96 22.9
2011-03-15 10:56:54 51°31.303 2°52.638 188.1 0.1 185 22.4
2011-03-15 10:57:54 51°31.301 2°52.639 186.1 0.2 224 22.5
2011-03-15 10:58:54 51°31.299 2°52.639 185.6 0.1 268 22.2
2011-03-15 10:59:54 51°31.301 2°52.638 185.5 0.2 324 22.6
2011-03-15 11:00:54 51°31.303 2°52.638 184.9 0.2 313 22.6
2011-03-15 11:01:54 51°31.305 2°52.637 184.8 0.1 49 22.7
2011-03-15 11:02:54 51°31.305 2°52.636 183.7 0.1 273 22.5
2011-03-15 11:03:54 51°31.305 2°52.636 183 0.1 107 22.7
2011-03-15 11:04:55 51°31.304 2°52.636 181.1 0.1 75 22.5
2011-03-15 11:05:55 51°31.305 2°52.636 178.9 0.1 97 22.6
2011-03-15 11:06:54 51°31.306 2°52.636 179.3 0.1 303 22.5
2011-03-15 11:07:55 51°31.306 2°52.635 179.9 0.1 234 22.6
2011-03-15 11:08:54 51°31.305 2°52.636 178.6 0.1 116 22.6
2011-03-15 11:09:55 51°31.305 2°52.637 177.8 0.1 169 22.7
2011-03-15 11:10:55 51°31.304 2°52.637 176.9 -999 75 22.6
2011-03-15 11:11:54 51°31.304 2°52.638 174.7 0.2 78 22.5
2011-03-15 11:12:54 51°31.304 2°52.638 175.6 0.1 88 22.8
2011-03-15 11:13:54 51°31.304 2°52.638 178.9 0.1 74 22.8
2011-03-15 11:14:54 51°31.3 2°52.633 184.2 0.6 212 22.2
2011-03-15 11:15:54 51°31.291 2°52.623 193.9 0.6 204 22.3
2011-03-15 11:16:54 51°31.287 2°52.61 204 0.3 247 22.6
2011-03-15 11:17:54 51°31.288 2°52.603 200.6 0.2 310 22.6
2011-03-15 11:18:54 51°31.289 2°52.603 188.3 0.1 153 22.8
2011-03-15 11:19:54 51°31.272 2°52.578 231.7 2.8 248 23
2011-03-15 11:20:55 51°31.302 2°52.494 321.2 4.8 333 23.6
2011-03-15 11:21:54 51°31.397 2°52.51 22.8 7.3 24 20.4
2011-03-15 11:22:55 51°31.503 2°52.646 44.7 8.6 40 22.5
2011-03-15 11:23:55 51°31.615 2°52.795 43.5 8.9 40 23.8
2011-03-15 11:24:55 51°31.728 2°52.949 43.9 8.9 41 23.7
2011-03-15 11:25:55 51°31.839 2°53.107 44.4 9 41 19.5
2011-03-15 11:26:55 51°31.951 2°53.266 45.8 9 42 23.2
2011-03-15 11:27:55 51°32.063 2°53.426 45 9.1 42 24.8
2011-03-15 11:28:55 51°32.175 2°53.587 45.3 9 42 23.2
2011-03-15 11:29:55 51°32.288 2°53.75 45.9 9.1 43 22
2011-03-15 11:30:55 51°32.4 2°53.913 43.7 9.1 40 25.2
2011-03-15 11:31:55 51°32.519 2°54.062 39.8 9.1 37 22.1
2011-03-15 11:32:55 51°32.638 2°54.211 41.3 9 38 25.9
2011-03-15 11:33:55 51°32.757 2°54.363 42.3 9.1 40 25
2011-03-15 11:34:55 51°32.876 2°54.513 42.1 9 38 23
2011-03-15 11:35:55 51°32.991 2°54.666 44.4 9 41 27
2011-03-15 11:36:55 51°33.101 2°54.826 46.5 8.9 43 25.7
2011-03-15 11:37:55 51°33.197 2°55.006 55.5 8.8 52 26.2
2011-03-15 11:38:55 51°33.268 2°55.21 69.6 8.8 67 26.6
2011-03-15 11:39:55 51°33.294 2°55.406 87.9 6.3 83 27.5
2011-03-15 11:40:55 51°33.286 2°55.546 111.2 4.8 103 27.4
2011-03-15 11:41:55 51°33.264 2°55.657 115.2 3.8 108 27.2
2011-03-15 11:42:55 51°33.251 2°55.737 111 2.5 101 27.4
2011-03-15 11:43:55 51°33.248 2°55.791 110.9 1.7 97 25.1
2011-03-15 11:44:55 51°33.247 2°55.829 111.8 1.3 97 25.1
2011-03-15 11:45:55 51°33.247 2°55.856 109.4 0.8 93 26.2
2011-03-15 11:46:54 51°33.249 2°55.875 106.6 0.7 68 26.2
2011-03-15 11:47:55 51°33.251 2°55.888 108.3 0.5 98 26.3
2011-03-15 11:48:54 51°33.234 2°55.945 141 3.6 140 26.7
2011-03-15 11:49:55 51°33.126 2°55.976 173 8.4 169 25.9
2011-03-15 11:50:54 51°33.069 2°56.082 97.3 4.8 89 25.5
2011-03-15 11:51:54 51°33.113 2°56.165 25.5 3.4 25 26.1
2011-03-15 11:52:55 51°33.158 2°56.174 352.3 2.3 356 27.1
2011-03-15 11:53:55 51°33.189 2°56.166 345.1 1.7 347 27.5
2011-03-15 11:54:55 51°33.215 2°56.152 326 1.6 336 27.9
2011-03-15 11:55:54 51°33.235 2°56.135 324.2 1.2 327 28.1
2011-03-15 11:56:55 51°33.25 2°56.125 338.2 0.8 333 28.4
2011-03-15 11:57:54 51°33.261 2°56.119 348.5 0.3 334 28.2
2011-03-15 11:58:55 51°33.261 2°56.112 341.2 0.2 267 28.6
2011-03-15 11:59:55 51°33.261 2°56.109 328.4 0.5 327 27.9
2011-03-15 12:00:54 51°33.276 2°56.06 269.3 2.8 276 28
2011-03-15 12:01:54 51°33.249 2°55.998 213.2 3.6 219 27.2
2011-03-15 12:02:54 51°33.202 2°55.942 217.3 2.9 223 26
2011-03-15 12:03:55 51°33.186 2°55.883 255.6 2.3 271 23.9
2011-03-15 12:04:54 51°33.203 2°55.83 295.7 2.2 313 26.3
2011-03-15 12:05:54 51°33.227 2°55.797 305.5 1.7 325 26.3
2011-03-15 12:06:55 51°33.249 2°55.775 317.1 1.4 325 25.8
2011-03-15 12:07:55 51°33.268 2°55.761 326.3 1.2 333 23.7
2011-03-15 12:08:54 51°33.291 2°55.74 305.5 2 318 24
2011-03-15 12:09:55 51°33.301 2°55.683 244.2 2.4 253 26.6
2011-03-15 12:10:54 51°33.27 2°55.66 177.9 2.4 168 26.9
2011-03-15 12:11:54 51°33.229 2°55.705 147.1 3.6 138 26.2
2011-03-15 12:12:55 51°33.179 2°55.778 146.2 4.3 139 25.9
2011-03-15 12:13:54 51°33.135 2°55.835 150.9 2.8 142 26.3
2011-03-15 12:14:55 51°33.103 2°55.876 151 2 137 26.2
2011-03-15 12:15:55 51°33.084 2°55.914 140 1.7 120 26.5
2011-03-15 12:16:55 51°33.071 2°55.949 137.1 1.4 119 26.5
2011-03-15 12:17:54 51°33.061 2°55.982 133.1 1.4 112 26.2
2011-03-15 12:18:55 51°33.055 2°56.015 123.1 1.1 107 26
2011-03-15 12:19:54 51°33.054 2°56.04 121.7 0.8 95 25.1
2011-03-15 12:20:55 51°33.053 2°56.059 121.9 0.6 96 23.6
2011-03-15 12:21:55 51°33.053 2°56.073 121.2 0.3 102 25.3
2011-03-15 12:22:54 51°33.055 2°56.083 125.3 0.5 69 24.1
2011-03-15 12:23:55 51°33.057 2°56.089 131.3 0.3 70 25.2
2011-03-15 12:24:54 51°33.058 2°56.093 137 0.2 31 25.4
2011-03-15 12:25:55 51°33.06 2°56.094 143.7 0.2 34 25.6
2011-03-15 12:26:54 51°33.061 2°56.094 151 0.1 12 25.7
2011-03-15 12:27:57 51°33.063 2°56.092 156.9 0.2 329 -999
2011-03-15 12:28:56 51°33.065 2°56.091 161.1 0.1 331 25.7
2011-03-15 12:29:55 51°33.067 2°56.088 163.7 0.1 351 25.5
2011-03-15 12:30:54 51°33.067 2°56.087 162.6 0.1 84 25.5
2011-03-15 12:31:55 51°33.067 2°56.085 163 0.1 277 25.6
2011-03-15 12:32:55 51°33.068 2°56.084 160.6 0.1 322 25.2
2011-03-15 12:33:54 51°33.069 2°56.084 158.1 0.1 268 25.2
2011-03-15 12:34:55 51°33.069 2°56.084 154.7 0.1 282 25.4
2011-03-15 12:35:55 51°33.07 2°56.084 151.7 -999 129 25.1
2011-03-15 12:36:54 51°33.071 2°56.084 148.4 0.1 329 25.4
2011-03-15 12:37:54 51°33.071 2°56.084 148.2 0.1 302 25.4
2011-03-15 12:38:55 51°33.071 2°56.084 149.6 -999 296 25.4
2011-03-15 12:39:54 51°33.071 2°56.082 150.5 0.1 282 25.3
2011-03-15 12:40:55 51°33.071 2°56.081 153.1 -999 238 25.3
2011-03-15 12:41:54 51°33.07 2°56.079 153.5 0.1 228 25.1
2011-03-15 12:42:55 51°33.068 2°56.077 153.6 0.2 255 25.8
2011-03-15 12:43:55 51°33.067 2°56.075 154.3 0.2 197 25.6
2011-03-15 12:44:55 51°33.064 2°56.074 154 0.2 162 24.9
2011-03-15 12:45:54 51°33.062 2°56.073 152.9 0.2 196 24.5
2011-03-15 12:46:54 51°33.059 2°56.071 152.3 0.2 215 24.6
2011-03-15 12:47:55 51°33.057 2°56.07 150.1 0.1 198 24.9
2011-03-15 12:48:54 51°33.055 2°56.068 149.4 0.3 217 24.6
2011-03-15 12:49:54 51°33.053 2°56.067 148.2 0.1 107 23.8
2011-03-15 12:50:54 51°33.05 2°56.066 144.4 0.2 220 22.9
2011-03-15 12:51:54 51°33.046 2°56.066 144.1 0.3 194 23.8
2011-03-15 12:52:55 51°33.042 2°56.066 142.8 0.2 183 24.8
2011-03-15 12:53:54 51°33.039 2°56.066 141.5 0.2 202 25
2011-03-15 12:54:54 51°33.036 2°56.066 141.6 0.3 200 25.5
2011-03-15 12:55:54 51°33.032 2°56.065 142.3 0.2 200 25.7
2011-03-15 12:56:55 51°33.029 2°56.065 141.3 0.2 170 26
2011-03-15 12:57:54 51°33.025 2°56.064 139.4 0.2 185 26.2
2011-03-15 12:58:54 51°33.021 2°56.064 139.9 0.2 164 26.3
2011-03-15 12:59:55 51°33.017 2°56.063 140.2 0.3 195 26.1
2011-03-15 13:00:54 51°33.012 2°56.061 139.9 0.2 191 26.1
2011-03-15 13:01:54 51°33.006 2°56.062 135.3 0.3 222 26.2
2011-03-15 13:02:56 51°33.016 2°56.043 147.2 1.7 320 -999
2011-03-15 13:03:58 51°33.051 2°56.022 177.3 2.5 353 -999
2011-03-15 13:04:57 51°33.087 2°56.021 193.9 1.8 3 24.8
2011-03-15 13:05:55 51°33.11 2°56.025 205.5 0.8 2 26.2
2011-03-15 13:06:54 51°33.112 2°56.02 200.4 0.3 258 26.1
2011-03-15 13:07:54 51°33.11 2°56.014 195.1 0.2 232 25.8
2011-03-15 13:08:54 51°33.107 2°56.007 187.5 0.4 247 25
2011-03-15 13:09:54 51°33.099 2°56.005 169.1 1.1 169 24.8
2011-03-15 13:10:55 51°33.079 2°56.03 129.2 1.5 127 24.3
2011-03-15 13:11:54 51°33.066 2°56.062 121.3 1.4 126 24.4
2011-03-15 13:12:54 51°33.054 2°56.096 120.2 1.7 117 24.9
2011-03-15 13:13:54 51°33.035 2°56.137 128.5 2 129 24.2
2011-03-15 13:14:54 51°33.012 2°56.182 135.3 2.1 132 23.4
2011-03-15 13:15:54 51°32.993 2°56.216 136.9 1.6 123 23.4
2011-03-15 13:16:54 51°32.977 2°56.241 134.4 1.1 131 22.1
2011-03-15 13:17:55 51°32.966 2°56.26 132.9 1 131 23.3
2011-03-15 13:18:54 51°32.955 2°56.276 137.7 0.5 141 22.2
2011-03-15 13:19:56 51°32.969 2°56.264 163.8 1.5 342 -999
2011-03-15 13:20:58 51°32.99 2°56.258 191 0.4 212 -999
2011-03-15 13:21:57 51°32.973 2°56.193 262.5 4.3 268 25.7
2011-03-15 13:22:55 51°32.988 2°56.021 283.6 8 285 25.1
2011-03-15 13:23:55 51°33.033 2°55.879 308.4 4.2 308 23.9
2011-03-15 13:24:54 51°33.068 2°55.83 327.2 2.3 328 24.5
2011-03-15 13:25:55 51°33.092 2°55.806 337.6 1.3 330 25.4
2011-03-15 13:26:55 51°33.108 2°55.794 346.8 0.9 335 26
2011-03-15 13:27:54 51°33.119 2°55.787 356.3 0.6 344 25.6
2011-03-15 13:28:55 51°33.127 2°55.78 1.7 0.5 328 25.8
2011-03-15 13:29:54 51°33.133 2°55.772 3.6 0.4 314 26.3
2011-03-15 13:30:55 51°33.136 2°55.763 1.1 0.5 293 26.2
2011-03-15 13:31:54 51°33.137 2°55.753 356.1 0.4 266 26.2
2011-03-15 13:32:54 51°33.137 2°55.741 345.8 0.4 268 25.5
2011-03-15 13:33:54 51°33.134 2°55.731 334.5 0.3 242 25.8
2011-03-15 13:34:54 51°33.132 2°55.721 323.5 0.2 237 25.5
2011-03-15 13:35:54 51°33.127 2°55.713 312.9 0.4 222 25.1
2011-03-15 13:36:54 51°33.124 2°55.704 304.8 0.5 254 26.3
2011-03-15 13:37:54 51°33.126 2°55.684 304.8 1 287 26.6
2011-03-15 13:38:54 51°33.135 2°55.656 323.3 1.2 313 26.7
2011-03-15 13:39:54 51°33.153 2°55.635 344.6 1.3 331 26.5
2011-03-15 13:40:54 51°33.199 2°55.591 323.8 4.7 318 26.4
2011-03-15 13:41:54 51°33.237 2°55.454 279.7 6.6 275 25.3
2011-03-15 13:42:55 51°33.213 2°55.238 252 9.3 248 23.8
2011-03-15 13:43:55 51°33.101 2°55.056 208.4 9.9 205 22.7
2011-03-15 13:44:54 51°32.931 2°55.016 187.3 11.6 186 25.4
2011-03-15 13:45:54 51°32.719 2°54.978 180 12.9 180 24.9
2011-03-15 13:46:54 51°32.498 2°54.988 176.8 13 177 23.3
2011-03-15 13:47:54 51°32.278 2°54.998 177.9 13.4 181 22.3
2011-03-15 13:48:55 51°32.053 2°55.005 176.8 13.5 179 22
2011-03-15 13:49:55 51°31.834 2°55.004 178.6 12.9 180 20.7
2011-03-15 13:50:55 51°31.616 2°55.009 177.7 13.2 179 20.3
2011-03-15 13:51:54 51°31.403 2°55.01 179.4 12.6 180 15.9
2011-03-15 13:52:55 51°31.18 2°55.012 178.2 13.3 179 17.4
2011-03-15 13:53:55 51°30.961 2°55.019 178 13.3 178 17.7
2011-03-15 13:54:55 51°30.742 2°55.026 177.4 13 177 31.5
2011-03-15 13:55:55 51°30.522 2°55.029 178.1 13.3 179 36.1
2011-03-15 13:56:55 51°30.301 2°55.029 177.8 13.1 179 35.3
2011-03-15 13:57:55 51°30.08 2°55.005 188.8 13.3 190 32.8
2011-03-15 13:58:54 51°29.863 2°54.942 189.5 13.6 190 28.9
2011-03-15 13:59:55 51°29.639 2°54.873 188.3 13.2 190 28.8
2011-03-15 14:00:55 51°29.417 2°54.809 189.8 13.6 191 28.4
2011-03-15 14:01:55 51°29.196 2°54.74 190.6 13.5 191 27.6
2011-03-15 14:02:54 51°28.979 2°54.677 189 13.6 189 25.8
2011-03-15 14:03:55 51°28.755 2°54.613 191.4 13.7 191 24.5
2011-03-15 14:04:54 51°28.538 2°54.556 189.3 13.7 188 22.1
2011-03-15 14:05:55 51°28.314 2°54.498 188.5 13.6 190 21
2011-03-15 14:06:55 51°28.093 2°54.436 189.5 13.6 190 20.6
2011-03-15 14:07:54 51°27.875 2°54.375 188.8 13.8 193 22.6
2011-03-15 14:08:55 51°27.648 2°54.312 190.5 13.6 194 26.1
2011-03-15 14:09:55 51°27.427 2°54.248 188.8 13.4 190 26.4
2011-03-15 14:10:55 51°27.208 2°54.179 190.2 13.3 190 25.4
2011-03-15 14:11:55 51°26.995 2°54.084 203.3 13.4 210 24.1
2011-03-15 14:12:55 51°26.889 2°53.782 251.7 13.3 250 26.7
2011-03-15 14:13:54 51°26.82 2°53.449 252.6 13.4 253 27.7
2011-03-15 14:14:54 51°26.734 2°53.118 248.6 13.5 247 29.5
2011-03-15 14:15:54 51°26.647 2°52.785 249 13.8 246 28.4
2011-03-15 14:16:55 51°26.553 2°52.455 236.3 13.3 236 27
2011-03-15 14:17:55 51°26.38 2°52.225 218.8 13.7 218 27.5
2011-03-15 14:18:55 51°26.205 2°51.994 220 13.7 220 25.7
2011-03-15 14:19:55 51°26.006 2°51.866 181.7 13.1 185 26.9
2011-03-15 14:20:55 51°25.786 2°51.865 179.3 13.1 183 29.3
2011-03-15 14:21:55 51°25.562 2°51.858 179.4 13.6 181 29.4
2011-03-15 14:22:54 51°25.342 2°51.843 178.8 13.6 182 23.6
2011-03-15 14:23:55 51°25.112 2°51.83 179.5 13.7 183 22.6
2011-03-15 14:24:55 51°24.887 2°51.81 179.7 13.8 182 22.3
2011-03-15 14:25:55 51°24.66 2°51.795 178.6 13.6 182 21.7
2011-03-15 14:26:55 51°24.435 2°51.78 180.4 13.2 183 21.1
2011-03-15 14:27:55 51°24.207 2°51.763 178 13.5 182 19.8
2011-03-15 14:28:55 51°23.981 2°51.747 178.6 13.8 183 18.2
2011-03-15 14:29:54 51°23.758 2°51.729 180.4 13.4 182 16.8
2011-03-15 14:30:55 51°23.528 2°51.708 178.4 13.7 182 15.4
2011-03-15 14:31:54 51°23.304 2°51.691 177.5 13.6 181 13.8
2011-03-15 14:32:54 51°23.076 2°51.673 178.6 13.8 184 21
2011-03-15 14:33:55 51°22.845 2°51.65 180.8 13.6 184 22.7
2011-03-15 14:34:54 51°22.621 2°51.634 176.1 13.7 180 22.8
2011-03-15 14:35:55 51°22.393 2°51.628 177.9 13.6 183 23.1
2011-03-15 14:36:54 51°22.174 2°51.639 168.5 13.6 172 23.7
2011-03-15 14:37:55 51°21.949 2°51.67 174.3 13.4 179 23.8
2011-03-15 14:38:55 51°21.724 2°51.663 176.1 13.3 180 23.9
2011-03-15 14:39:55 51°21.498 2°51.659 175.7 13.3 182 22.5
2011-03-15 14:40:54 51°21.277 2°51.651 176.5 13.4 181 20.6
2011-03-15 14:41:55 51°21.051 2°51.689 169.1 13 173 17.8
2011-03-15 14:42:54 51°20.83 2°51.711 172.9 13.4 178 16.4
2011-03-15 14:43:54 51°20.607 2°51.734 171.7 13.4 175 13.8
2011-03-15 14:44:55 51°20.382 2°51.755 172.3 13.4 176 12.8
2011-03-15 14:45:54 51°20.164 2°51.779 170.7 13 175 13.8
2011-03-15 14:46:55 51°19.935 2°51.796 170.2 14 176 15.2
2011-03-15 14:47:55 51°19.712 2°51.812 172.9 13.5 178 15.6
2011-03-15 14:48:54 51°19.493 2°51.828 171.8 13.2 177 15.4
2011-03-15 14:49:55 51°19.265 2°51.843 170.7 13.5 176 15.1
2011-03-15 14:50:54 51°19.045 2°51.858 173 13.6 178 14.4
2011-03-15 14:51:55 51°18.82 2°51.885 167.8 13.2 174 13.2
2011-03-15 14:52:54 51°18.602 2°51.919 169.2 13.3 175 12.2
2011-03-15 14:53:55 51°18.375 2°51.952 168.6 13.4 175 11.1
2011-03-15 14:54:55 51°18.152 2°51.981 170.1 13.1 176 10.3
2011-03-15 14:55:55 51°17.928 2°52.02 167.8 13.1 174 10.3
2011-03-15 14:56:55 51°17.703 2°52.06 167.7 14 173 10.6
2011-03-15 14:57:54 51°17.481 2°52.101 167.7 13.8 172 11
2011-03-15 14:58:55 51°17.25 2°52.139 167.7 13.6 173 11
2011-03-15 14:59:55 51°17.026 2°52.181 170.4 13.4 175 10.4
2011-03-15 15:00:55 51°16.808 2°52.262 158.9 13.4 162 10.6
2011-03-15 15:01:55 51°16.633 2°52.356 155.4 9.2 160 10.8
2011-03-15 15:02:54 51°16.504 2°52.43 150.3 8.1 155 11.2
2011-03-15 15:03:55 51°16.38 2°52.531 145.9 8.8 152 11.6
2011-03-15 15:04:55 51°16.252 2°52.663 135.3 9.3 143 11.7
2011-03-15 15:05:55 51°16.143 2°52.847 122 9.7 128 11.8
2011-03-15 15:06:54 51°16.028 2°53.034 128.3 10.3 136 11.7
2011-03-15 15:07:55 51°15.908 2°53.228 127.7 9.8 137 11.2
2011-03-15 15:08:54 51°15.789 2°53.414 128.2 9.9 137 11
2011-03-15 15:09:55 51°15.657 2°53.59 135.6 10.1 143 11
2011-03-15 15:10:54 51°15.523 2°53.751 135.6 10.2 141 10.9
2011-03-15 15:11:55 51°15.385 2°53.922 137.2 10.3 143 10.7
2011-03-15 15:12:54 51°15.249 2°54.083 135.9 10.2 144 10.7
2011-03-15 15:13:55 51°15.111 2°54.258 136.9 10.5 142 10.6
2011-03-15 15:14:54 51°14.974 2°54.419 136.1 10.3 145 9.1
2011-03-15 15:15:55 51°14.831 2°54.586 137.9 10.4 144 10.6
2011-03-15 15:16:55 51°14.693 2°54.75 139 10.5 145 10.7
2011-03-15 15:17:55 51°14.553 2°54.91 137.1 10.3 145 10.8
2011-03-15 15:18:54 51°14.427 2°55.082 138 10.1 141 9.3
2011-03-15 15:19:55 51°14.287 2°55.254 142.4 10.6 142 9.8
2011-03-15 15:20:58 51°14.144 2°55.394 152.8 8.9 153 -999
2011-03-15 15:21:58 51°14.021 2°55.484 154.7 7.3 155 10.1
2011-03-15 15:22:56 51°13.917 2°55.561 155.5 7.3 155 10.6
2011-03-15 15:23:55 51°13.811 2°55.646 150.5 6.8 149 10.6
2011-03-15 15:24:58 51°13.736 2°55.746 130.9 4.9 133 -999
2011-03-15 15:25:58 51°13.694 2°55.835 121.4 3.7 124 -999
2011-03-15 15:26:58 51°13.67 2°55.922 107.1 3.8 106 -999